sensor_id;sensor_type;location;lat;lon;timestamp;temperature;humidity
2929;DHT22;1474;51.460;7.150;2023-06-22T00:00:59;22.50;58.10
2929;DHT22;1474;51.460;7.150;2023-06-22T00:03:26;22.40;57.70
2929;DHT22;1474;51.460;7.150;2023-06-22T00:05:52;22.40;58.10
2929;DHT22;1474;51.460;7.150;2023-06-22T00:08:19;22.30;58.40
2929;DHT22;1474;51.460;7.150;2023-06-22T00:10:46;22.20;58.90
2929;DHT22;1474;51.460;7.150;2023-06-22T00:13:12;22.20;59.50
2929;DHT22;1474;51.460;7.150;2023-06-22T00:15:40;22.10;60.20
2929;DHT22;1474;51.460;7.150;2023-06-22T00:18:07;22.10;60.20
2929;DHT22;1474;51.460;7.150;2023-06-22T00:20:34;22.10;60.80
2929;DHT22;1474;51.460;7.150;2023-06-22T00:23:03;22.10;60.90
2929;DHT22;1474;51.460;7.150;2023-06-22T00:25:39;22.10;61.10
2929;DHT22;1474;51.460;7.150;2023-06-22T00:28:06;22.10;61.40
2929;DHT22;1474;51.460;7.150;2023-06-22T00:30:33;22.00;61.60
2929;DHT22;1474;51.460;7.150;2023-06-22T00:33:00;22.00;61.70
2929;DHT22;1474;51.460;7.150;2023-06-22T00:35:27;22.00;61.90
2929;DHT22;1474;51.460;7.150;2023-06-22T00:37:58;21.90;62.40
2929;DHT22;1474;51.460;7.150;2023-06-22T00:40:31;21.90;62.20
2929;DHT22;1474;51.460;7.150;2023-06-22T00:42:58;21.90;62.60
2929;DHT22;1474;51.460;7.150;2023-06-22T00:51:13;21.90;63.00
2929;DHT22;1474;51.460;7.150;2023-06-22T00:54:41;21.80;63.20
2929;DHT22;1474;51.460;7.150;2023-06-22T00:58:32;21.80;63.50
2929;DHT22;1474;51.460;7.150;2023-06-22T01:01:34;21.80;63.80
2929;DHT22;1474;51.460;7.150;2023-06-22T01:05:02;21.70;63.90
2929;DHT22;1474;51.460;7.150;2023-06-22T01:09:28;21.70;64.20
2929;DHT22;1474;51.460;7.150;2023-06-22T01:13:02;21.60;64.40
2929;DHT22;1474;51.460;7.150;2023-06-22T01:16:51;21.50;64.80
2929;DHT22;1474;51.460;7.150;2023-06-22T01:20:17;21.50;65.10
2929;DHT22;1474;51.460;7.150;2023-06-22T06:02:39;20.60;73.70
2929;DHT22;1474;51.460;7.150;2023-06-22T06:06:27;20.60;73.60
2929;DHT22;1474;51.460;7.150;2023-06-22T06:09:41;20.70;74.20
2929;DHT22;1474;51.460;7.150;2023-06-22T06:12:07;20.70;73.30
2929;DHT22;1474;51.460;7.150;2023-06-22T06:14:34;20.70;73.20
2929;DHT22;1474;51.460;7.150;2023-06-22T06:17:00;20.70;72.90
2929;DHT22;1474;51.460;7.150;2023-06-22T06:19:25;20.80;73.40
2929;DHT22;1474;51.460;7.150;2023-06-22T06:21:51;20.80;72.60
2929;DHT22;1474;51.460;7.150;2023-06-22T06:24:17;20.80;72.80
2929;DHT22;1474;51.460;7.150;2023-06-22T06:26:43;20.80;73.30
2929;DHT22;1474;51.460;7.150;2023-06-22T06:29:08;20.90;73.80
2929;DHT22;1474;51.460;7.150;2023-06-22T06:31:34;20.90;73.50
2929;DHT22;1474;51.460;7.150;2023-06-22T06:34:00;21.00;73.20
2929;DHT22;1474;51.460;7.150;2023-06-22T06:36:26;21.00;73.20
2929;DHT22;1474;51.460;7.150;2023-06-22T06:38:51;21.10;72.30
2929;DHT22;1474;51.460;7.150;2023-06-22T06:41:17;21.20;71.80
2929;DHT22;1474;51.460;7.150;2023-06-22T06:43:44;21.20;72.00
2929;DHT22;1474;51.460;7.150;2023-06-22T06:46:10;21.30;71.50
2929;DHT22;1474;51.460;7.150;2023-06-22T06:48:36;21.40;69.80
2929;DHT22;1474;51.460;7.150;2023-06-22T06:51:02;21.40;70.60
2929;DHT22;1474;51.460;7.150;2023-06-22T06:53:28;21.50;71.30
2929;DHT22;1474;51.460;7.150;2023-06-22T06:55:54;21.70;71.00
2929;DHT22;1474;51.460;7.150;2023-06-22T06:58:20;21.80;70.60
2929;DHT22;1474;51.460;7.150;2023-06-22T07:00:46;21.80;71.00
2929;DHT22;1474;51.460;7.150;2023-06-22T07:03:11;21.90;70.30
2929;DHT22;1474;51.460;7.150;2023-06-22T07:05:37;22.00;70.70
2929;DHT22;1474;51.460;7.150;2023-06-22T07:08:03;22.10;71.00
2929;DHT22;1474;51.460;7.150;2023-06-22T07:10:29;22.10;69.60
2929;DHT22;1474;51.460;7.150;2023-06-22T07:12:55;22.20;69.70
2929;DHT22;1474;51.460;7.150;2023-06-22T07:15:22;22.20;68.90
2929;DHT22;1474;51.460;7.150;2023-06-22T07:17:48;22.20;68.60
2929;DHT22;1474;51.460;7.150;2023-06-22T07:20:13;22.30;68.30
2929;DHT22;1474;51.460;7.150;2023-06-22T07:22:41;22.30;68.30
2929;DHT22;1474;51.460;7.150;2023-06-22T07:25:08;22.30;67.80
2929;DHT22;1474;51.460;7.150;2023-06-22T07:27:39;22.30;67.60
2929;DHT22;1474;51.460;7.150;2023-06-22T07:30:09;22.30;69.00
2929;DHT22;1474;51.460;7.150;2023-06-22T07:32:35;22.30;69.00
2929;DHT22;1474;51.460;7.150;2023-06-22T07:35:02;22.30;68.20
2929;DHT22;1474;51.460;7.150;2023-06-22T07:37:28;22.30;68.80
2929;DHT22;1474;51.460;7.150;2023-06-22T07:39:55;22.40;70.50
2929;DHT22;1474;51.460;7.150;2023-06-22T07:42:26;22.40;70.10
2929;DHT22;1474;51.460;7.150;2023-06-22T07:44:52;22.50;69.80
2929;DHT22;1474;51.460;7.150;2023-06-22T07:47:18;22.60;68.70
2929;DHT22;1474;51.460;7.150;2023-06-22T07:49:45;22.60;67.90
2929;DHT22;1474;51.460;7.150;2023-06-22T07:52:11;22.60;69.00
2929;DHT22;1474;51.460;7.150;2023-06-22T07:54:38;22.60;70.70
2929;DHT22;1474;51.460;7.150;2023-06-22T07:57:04;22.70;70.80
2929;DHT22;1474;51.460;7.150;2023-06-22T07:59:30;22.70;71.00
2929;DHT22;1474;51.460;7.150;2023-06-22T08:01:56;22.60;70.70
2929;DHT22;1474;51.460;7.150;2023-06-22T08:04:22;22.60;70.80
2929;DHT22;1474;51.460;7.150;2023-06-22T08:06:47;22.60;72.60
2929;DHT22;1474;51.460;7.150;2023-06-22T08:09:14;22.70;73.20
2929;DHT22;1474;51.460;7.150;2023-06-22T08:11:40;22.70;73.20
2929;DHT22;1474;51.460;7.150;2023-06-22T08:14:06;22.70;72.70
2929;DHT22;1474;51.460;7.150;2023-06-22T08:16:31;22.70;71.80
2929;DHT22;1474;51.460;7.150;2023-06-22T08:18:57;22.70;72.60
2929;DHT22;1474;51.460;7.150;2023-06-22T08:21:23;22.70;72.30
2929;DHT22;1474;51.460;7.150;2023-06-22T08:23:49;22.70;72.40
2929;DHT22;1474;51.460;7.150;2023-06-22T08:26:15;22.70;73.90
2929;DHT22;1474;51.460;7.150;2023-06-22T08:28:40;22.80;74.10
2929;DHT22;1474;51.460;7.150;2023-06-22T08:31:06;22.80;71.50
2929;DHT22;1474;51.460;7.150;2023-06-22T08:33:32;22.70;72.60
2929;DHT22;1474;51.460;7.150;2023-06-22T08:35:58;22.70;73.20
2929;DHT22;1474;51.460;7.150;2023-06-22T08:38:25;22.60;73.60
2929;DHT22;1474;51.460;7.150;2023-06-22T08:40:51;22.60;72.30
2929;DHT22;1474;51.460;7.150;2023-06-22T08:43:16;22.60;72.70
2929;DHT22;1474;51.460;7.150;2023-06-22T08:45:42;22.60;73.50
2929;DHT22;1474;51.460;7.150;2023-06-22T08:48:08;22.60;72.50
2929;DHT22;1474;51.460;7.150;2023-06-22T08:50:34;22.60;73.10
2929;DHT22;1474;51.460;7.150;2023-06-22T08:52:59;22.60;73.00
2929;DHT22;1474;51.460;7.150;2023-06-22T08:55:25;22.60;73.50
2929;DHT22;1474;51.460;7.150;2023-06-22T08:57:51;22.60;74.00
2929;DHT22;1474;51.460;7.150;2023-06-22T09:00:17;22.70;74.30
2929;DHT22;1474;51.460;7.150;2023-06-22T09:02:46;22.70;73.10
2929;DHT22;1474;51.460;7.150;2023-06-22T09:05:13;22.70;73.10
2929;DHT22;1474;51.460;7.150;2023-06-22T09:07:39;22.70;73.60
2929;DHT22;1474;51.460;7.150;2023-06-22T09:10:06;22.70;74.10
2929;DHT22;1474;51.460;7.150;2023-06-22T09:12:33;22.70;73.80
2929;DHT22;1474;51.460;7.150;2023-06-22T09:15:00;22.80;73.80
2929;DHT22;1474;51.460;7.150;2023-06-22T09:17:26;22.90;72.80
2929;DHT22;1474;51.460;7.150;2023-06-22T09:19:52;23.10;72.70
2929;DHT22;1474;51.460;7.150;2023-06-22T09:22:18;23.10;72.50
2929;DHT22;1474;51.460;7.150;2023-06-22T09:24:44;23.30;72.80
2929;DHT22;1474;51.460;7.150;2023-06-22T09:27:10;23.40;71.10
2929;DHT22;1474;51.460;7.150;2023-06-22T09:29:36;23.50;72.50
2929;DHT22;1474;51.460;7.150;2023-06-22T09:32:02;23.50;70.50
2929;DHT22;1474;51.460;7.150;2023-06-22T09:34:27;23.50;72.40
2929;DHT22;1474;51.460;7.150;2023-06-22T09:36:53;23.60;70.20
2929;DHT22;1474;51.460;7.150;2023-06-22T09:39:19;23.70;71.60
2929;DHT22;1474;51.460;7.150;2023-06-22T09:41:45;23.90;71.90
2929;DHT22;1474;51.460;7.150;2023-06-22T09:44:10;24.10;70.70
2929;DHT22;1474;51.460;7.150;2023-06-22T09:46:36;24.20;69.50
2929;DHT22;1474;51.460;7.150;2023-06-22T09:49:02;24.40;69.50
2929;DHT22;1474;51.460;7.150;2023-06-22T09:51:28;24.50;67.80
2929;DHT22;1474;51.460;7.150;2023-06-22T09:53:53;24.60;69.40
2929;DHT22;1474;51.460;7.150;2023-06-22T09:56:20;24.70;68.50
2929;DHT22;1474;51.460;7.150;2023-06-22T09:58:46;24.90;69.10
2929;DHT22;1474;51.460;7.150;2023-06-22T10:01:13;24.90;66.90
2929;DHT22;1474;51.460;7.150;2023-06-22T10:03:42;24.90;66.30
2929;DHT22;1474;51.460;7.150;2023-06-22T10:06:08;25.00;66.80
2929;DHT22;1474;51.460;7.150;2023-06-22T10:08:34;25.20;65.70
2929;DHT22;1474;51.460;7.150;2023-06-22T10:11:01;25.30;66.20
2929;DHT22;1474;51.460;7.150;2023-06-22T10:13:27;25.40;66.30
2929;DHT22;1474;51.460;7.150;2023-06-22T10:15:53;25.50;65.30
2929;DHT22;1474;51.460;7.150;2023-06-22T10:18:18;25.50;64.60
2929;DHT22;1474;51.460;7.150;2023-06-22T10:20:48;25.60;66.60
2929;DHT22;1474;51.460;7.150;2023-06-22T10:23:20;25.70;64.40
2929;DHT22;1474;51.460;7.150;2023-06-22T10:25:46;25.90;65.00
2929;DHT22;1474;51.460;7.150;2023-06-22T10:28:12;26.10;64.70
2929;DHT22;1474;51.460;7.150;2023-06-22T10:30:39;26.30;62.80
2929;DHT22;1474;51.460;7.150;2023-06-22T10:33:10;26.40;64.90
2929;DHT22;1474;51.460;7.150;2023-06-22T10:35:37;26.40;62.80
2929;DHT22;1474;51.460;7.150;2023-06-22T10:38:04;26.40;62.50
2929;DHT22;1474;51.460;7.150;2023-06-22T10:40:31;26.50;61.30
2929;DHT22;1474;51.460;7.150;2023-06-22T10:42:56;26.50;61.60
2929;DHT22;1474;51.460;7.150;2023-06-22T10:45:22;26.50;61.60
2929;DHT22;1474;51.460;7.150;2023-06-22T10:47:48;26.50;61.70
2929;DHT22;1474;51.460;7.150;2023-06-22T10:50:14;26.60;62.90
2929;DHT22;1474;51.460;7.150;2023-06-22T10:52:40;26.70;60.30
2929;DHT22;1474;51.460;7.150;2023-06-22T10:55:10;26.80;61.60
2929;DHT22;1474;51.460;7.150;2023-06-22T10:57:36;26.80;59.20
2929;DHT22;1474;51.460;7.150;2023-06-22T11:00:03;26.70;59.60
2929;DHT22;1474;51.460;7.150;2023-06-22T11:02:32;26.60;59.80
2929;DHT22;1474;51.460;7.150;2023-06-22T11:04:58;26.60;59.20
2929;DHT22;1474;51.460;7.150;2023-06-22T11:07:26;26.60;59.40
2929;DHT22;1474;51.460;7.150;2023-06-22T11:09:54;26.60;60.50
2929;DHT22;1474;51.460;7.150;2023-06-22T11:12:20;26.70;60.40
2929;DHT22;1474;51.460;7.150;2023-06-22T11:14:45;26.60;60.30
2929;DHT22;1474;51.460;7.150;2023-06-22T11:17:11;26.60;59.60
2929;DHT22;1474;51.460;7.150;2023-06-22T11:19:37;26.50;60.70
2929;DHT22;1474;51.460;7.150;2023-06-22T11:22:03;26.50;62.80
2929;DHT22;1474;51.460;7.150;2023-06-22T11:24:29;26.50;62.20
2929;DHT22;1474;51.460;7.150;2023-06-22T11:26:55;26.30;63.30
2929;DHT22;1474;51.460;7.150;2023-06-22T11:29:21;26.30;64.70
2929;DHT22;1474;51.460;7.150;2023-06-22T11:31:46;26.20;64.80
2929;DHT22;1474;51.460;7.150;2023-06-22T11:34:12;26.10;66.70
2929;DHT22;1474;51.460;7.150;2023-06-22T11:36:38;26.10;67.40
2929;DHT22;1474;51.460;7.150;2023-06-22T11:39:04;26.10;67.90
2929;DHT22;1474;51.460;7.150;2023-06-22T11:41:30;26.10;68.50
2929;DHT22;1474;51.460;7.150;2023-06-22T11:43:56;26.10;68.40
2929;DHT22;1474;51.460;7.150;2023-06-22T11:46:21;26.10;69.60
2929;DHT22;1474;51.460;7.150;2023-06-22T11:48:47;26.10;69.60
2929;DHT22;1474;51.460;7.150;2023-06-22T11:51:13;26.10;70.10
2929;DHT22;1474;51.460;7.150;2023-06-22T11:53:39;26.00;70.40
2929;DHT22;1474;51.460;7.150;2023-06-22T11:56:04;25.90;70.60
2929;DHT22;1474;51.460;7.150;2023-06-22T11:58:30;25.90;71.30
2929;DHT22;1474;51.460;7.150;2023-06-22T12:00:56;25.80;72.20
2929;DHT22;1474;51.460;7.150;2023-06-22T12:03:22;25.80;72.30
2929;DHT22;1474;51.460;7.150;2023-06-22T12:05:49;25.70;72.10
2929;DHT22;1474;51.460;7.150;2023-06-22T12:08:16;25.60;72.80
2929;DHT22;1474;51.460;7.150;2023-06-22T12:10:42;25.40;72.70
2929;DHT22;1474;51.460;7.150;2023-06-22T12:13:07;25.20;73.60
2929;DHT22;1474;51.460;7.150;2023-06-22T12:15:33;25.10;74.30
2929;DHT22;1474;51.460;7.150;2023-06-22T12:17:59;24.90;74.50
2929;DHT22;1474;51.460;7.150;2023-06-22T12:20:26;24.80;75.90
2929;DHT22;1474;51.460;7.150;2023-06-22T12:22:52;24.80;75.50
2929;DHT22;1474;51.460;7.150;2023-06-22T12:25:19;24.60;75.30
2929;DHT22;1474;51.460;7.150;2023-06-22T12:27:45;24.20;76.20
2929;DHT22;1474;51.460;7.150;2023-06-22T12:30:11;24.10;78.00
2929;DHT22;1474;51.460;7.150;2023-06-22T12:32:36;24.10;78.00
2929;DHT22;1474;51.460;7.150;2023-06-22T12:35:02;24.00;78.40
2929;DHT22;1474;51.460;7.150;2023-06-22T12:37:30;24.00;78.30
2929;DHT22;1474;51.460;7.150;2023-06-22T12:39:57;23.90;78.00
2929;DHT22;1474;51.460;7.150;2023-06-22T12:42:22;23.70;79.30
2929;DHT22;1474;51.460;7.150;2023-06-22T12:44:48;23.60;79.50
2929;DHT22;1474;51.460;7.150;2023-06-22T12:47:14;23.50;79.70
2929;DHT22;1474;51.460;7.150;2023-06-22T12:49:40;23.50;80.10
2929;DHT22;1474;51.460;7.150;2023-06-22T12:52:09;23.40;80.20
2929;DHT22;1474;51.460;7.150;2023-06-22T12:54:38;23.40;80.50
2929;DHT22;1474;51.460;7.150;2023-06-22T12:57:04;23.20;80.50
2929;DHT22;1474;51.460;7.150;2023-06-22T12:59:30;23.10;81.30
2929;DHT22;1474;51.460;7.150;2023-06-22T13:01:55;22.90;82.10
2929;DHT22;1474;51.460;7.150;2023-06-22T13:04:21;22.70;83.10
2929;DHT22;1474;51.460;7.150;2023-06-22T13:06:47;22.70;83.80
2929;DHT22;1474;51.460;7.150;2023-06-22T13:09:18;22.60;84.10
2929;DHT22;1474;51.460;7.150;2023-06-22T13:11:44;22.50;84.60
2929;DHT22;1474;51.460;7.150;2023-06-22T13:14:10;22.50;84.30
2929;DHT22;1474;51.460;7.150;2023-06-22T13:16:36;22.50;84.70
2929;DHT22;1474;51.460;7.150;2023-06-22T13:19:02;22.50;83.70
2929;DHT22;1474;51.460;7.150;2023-06-22T13:21:28;22.50;83.80
2929;DHT22;1474;51.460;7.150;2023-06-22T13:23:53;22.50;83.40
2929;DHT22;1474;51.460;7.150;2023-06-22T13:26:21;22.70;85.40
2929;DHT22;1474;51.460;7.150;2023-06-22T13:28:47;22.90;83.20
2929;DHT22;1474;51.460;7.150;2023-06-22T13:31:13;22.90;82.00
2929;DHT22;1474;51.460;7.150;2023-06-22T13:33:39;22.90;81.60
2929;DHT22;1474;51.460;7.150;2023-06-22T13:36:06;22.90;80.50
2929;DHT22;1474;51.460;7.150;2023-06-22T13:38:34;22.90;81.00
2929;DHT22;1474;51.460;7.150;2023-06-22T13:41:04;22.90;81.30
2929;DHT22;1474;51.460;7.150;2023-06-22T13:43:31;22.90;81.10
2929;DHT22;1474;51.460;7.150;2023-06-22T13:45:57;22.90;81.60
2929;DHT22;1474;51.460;7.150;2023-06-22T13:48:23;22.70;81.50
2929;DHT22;1474;51.460;7.150;2023-06-22T13:50:51;22.80;83.00
2929;DHT22;1474;51.460;7.150;2023-06-22T13:53:18;22.80;83.00
2929;DHT22;1474;51.460;7.150;2023-06-22T13:55:44;22.80;82.30
2929;DHT22;1474;51.460;7.150;2023-06-22T13:58:09;23.00;83.90
2929;DHT22;1474;51.460;7.150;2023-06-22T14:00:35;23.20;82.20
2929;DHT22;1474;51.460;7.150;2023-06-22T14:03:01;23.30;81.60
2929;DHT22;1474;51.460;7.150;2023-06-22T14:05:26;23.40;80.50
2929;DHT22;1474;51.460;7.150;2023-06-22T14:07:52;23.50;80.00
2929;DHT22;1474;51.460;7.150;2023-06-22T14:10:18;23.50;81.60
2929;DHT22;1474;51.460;7.150;2023-06-22T14:12:44;23.60;79.60
2929;DHT22;1474;51.460;7.150;2023-06-22T14:15:10;23.60;80.60
2929;DHT22;1474;51.460;7.150;2023-06-22T14:17:36;23.60;81.10
2929;DHT22;1474;51.460;7.150;2023-06-22T14:20:01;23.70;79.80
2929;DHT22;1474;51.460;7.150;2023-06-22T14:22:28;23.50;78.90
2929;DHT22;1474;51.460;7.150;2023-06-22T14:24:55;23.40;78.70
2929;DHT22;1474;51.460;7.150;2023-06-22T14:27:23;23.40;79.70
2929;DHT22;1474;51.460;7.150;2023-06-22T14:29:49;23.30;80.30
2929;DHT22;1474;51.460;7.150;2023-06-22T14:32:15;23.30;78.80
2929;DHT22;1474;51.460;7.150;2023-06-22T14:34:40;23.30;80.00
2929;DHT22;1474;51.460;7.150;2023-06-22T14:37:06;23.30;80.00
2929;DHT22;1474;51.460;7.150;2023-06-22T14:39:35;23.30;79.90
2929;DHT22;1474;51.460;7.150;2023-06-22T14:42:01;23.30;79.30
2929;DHT22;1474;51.460;7.150;2023-06-22T14:44:29;23.30;80.20
2929;DHT22;1474;51.460;7.150;2023-06-22T14:46:55;23.30;80.10
2929;DHT22;1474;51.460;7.150;2023-06-22T14:49:22;23.40;80.70
2929;DHT22;1474;51.460;7.150;2023-06-22T14:51:47;23.40;80.30
2929;DHT22;1474;51.460;7.150;2023-06-22T14:54:13;23.40;79.30
2929;DHT22;1474;51.460;7.150;2023-06-22T14:56:39;23.40;79.60
2929;DHT22;1474;51.460;7.150;2023-06-22T14:59:05;23.40;79.90
2929;DHT22;1474;51.460;7.150;2023-06-22T15:01:31;23.40;80.00
2929;DHT22;1474;51.460;7.150;2023-06-22T15:03:57;23.30;79.20
2929;DHT22;1474;51.460;7.150;2023-06-22T15:06:23;23.30;81.00
2929;DHT22;1474;51.460;7.150;2023-06-22T15:08:49;23.20;80.70
2929;DHT22;1474;51.460;7.150;2023-06-22T15:11:14;23.20;81.20
2929;DHT22;1474;51.460;7.150;2023-06-22T15:13:41;23.20;81.80
2929;DHT22;1474;51.460;7.150;2023-06-22T15:16:08;23.30;82.00
2929;DHT22;1474;51.460;7.150;2023-06-22T15:18:35;23.30;81.40
2929;DHT22;1474;51.460;7.150;2023-06-22T15:21:03;23.30;81.00
2929;DHT22;1474;51.460;7.150;2023-06-22T15:23:30;23.30;80.90
2929;DHT22;1474;51.460;7.150;2023-06-22T15:25:57;23.20;80.90
2929;DHT22;1474;51.460;7.150;2023-06-22T15:28:24;23.20;81.80
2929;DHT22;1474;51.460;7.150;2023-06-22T15:30:50;23.20;80.70
2929;DHT22;1474;51.460;7.150;2023-06-22T15:33:17;23.10;80.80
2929;DHT22;1474;51.460;7.150;2023-06-22T15:35:43;23.00;81.20
2929;DHT22;1474;51.460;7.150;2023-06-22T15:38:09;23.00;81.90
2929;DHT22;1474;51.460;7.150;2023-06-22T15:40:35;23.00;81.50
2929;DHT22;1474;51.460;7.150;2023-06-22T15:43:01;22.70;81.50
2929;DHT22;1474;51.460;7.150;2023-06-22T15:45:27;22.60;82.20
2929;DHT22;1474;51.460;7.150;2023-06-22T15:47:53;22.60;82.90
2929;DHT22;1474;51.460;7.150;2023-06-22T15:50:19;22.50;82.90
2929;DHT22;1474;51.460;7.150;2023-06-22T15:52:46;22.50;81.90
2929;DHT22;1474;51.460;7.150;2023-06-22T15:55:15;22.50;83.20
2929;DHT22;1474;51.460;7.150;2023-06-22T15:57:41;22.50;84.20
2929;DHT22;1474;51.460;7.150;2023-06-22T16:00:15;22.40;84.00
2929;DHT22;1474;51.460;7.150;2023-06-22T16:02:46;22.30;83.10
2929;DHT22;1474;51.460;7.150;2023-06-22T16:05:13;22.10;83.90
2929;DHT22;1474;51.460;7.150;2023-06-22T16:07:39;21.90;84.20
2929;DHT22;1474;51.460;7.150;2023-06-22T16:10:06;21.70;84.90
2929;DHT22;1474;51.460;7.150;2023-06-22T16:12:36;21.60;85.30
2929;DHT22;1474;51.460;7.150;2023-06-22T16:15:05;21.70;86.10
2929;DHT22;1474;51.460;7.150;2023-06-22T16:17:31;21.60;85.20
2929;DHT22;1474;51.460;7.150;2023-06-22T16:19:56;21.60;85.90
2929;DHT22;1474;51.460;7.150;2023-06-22T16:22:24;21.60;85.80
2929;DHT22;1474;51.460;7.150;2023-06-22T16:24:51;21.60;85.40
2929;DHT22;1474;51.460;7.150;2023-06-22T16:27:18;21.40;85.10
2929;DHT22;1474;51.460;7.150;2023-06-22T16:29:44;21.30;86.30
2929;DHT22;1474;51.460;7.150;2023-06-22T16:32:10;21.20;86.80
2929;DHT22;1474;51.460;7.150;2023-06-22T16:34:36;21.20;86.40
2929;DHT22;1474;51.460;7.150;2023-06-22T16:37:01;21.20;86.60
2929;DHT22;1474;51.460;7.150;2023-06-22T16:39:27;21.10;86.10
2929;DHT22;1474;51.460;7.150;2023-06-22T16:41:53;21.10;87.00
2929;DHT22;1474;51.460;7.150;2023-06-22T16:44:18;21.00;86.50
2929;DHT22;1474;51.460;7.150;2023-06-22T16:46:44;20.90;87.30
2929;DHT22;1474;51.460;7.150;2023-06-22T16:49:10;20.80;87.70
2929;DHT22;1474;51.460;7.150;2023-06-22T16:51:36;20.80;88.00
2929;DHT22;1474;51.460;7.150;2023-06-22T16:54:02;20.70;88.50
2929;DHT22;1474;51.460;7.150;2023-06-22T16:56:28;20.60;88.90
2929;DHT22;1474;51.460;7.150;2023-06-22T16:58:56;20.60;89.50
2929;DHT22;1474;51.460;7.150;2023-06-22T17:01:24;20.60;89.40
2929;DHT22;1474;51.460;7.150;2023-06-22T17:04:11;20.60;89.70
2929;DHT22;1474;51.460;7.150;2023-06-22T17:06:42;20.60;89.90
2929;DHT22;1474;51.460;7.150;2023-06-22T17:09:16;20.50;90.00
2929;DHT22;1474;51.460;7.150;2023-06-22T17:11:43;20.50;90.00
2929;DHT22;1474;51.460;7.150;2023-06-22T17:14:10;20.50;90.10
2929;DHT22;1474;51.460;7.150;2023-06-22T17:16:42;20.40;90.10
2929;DHT22;1474;51.460;7.150;2023-06-22T17:19:10;20.50;89.80
2929;DHT22;1474;51.460;7.150;2023-06-22T17:21:38;20.40;90.10
2929;DHT22;1474;51.460;7.150;2023-06-22T17:24:05;20.40;89.90
2929;DHT22;1474;51.460;7.150;2023-06-22T17:26:31;20.40;89.90
2929;DHT22;1474;51.460;7.150;2023-06-22T17:28:57;20.30;90.10
2929;DHT22;1474;51.460;7.150;2023-06-22T17:31:47;20.20;90.20
2929;DHT22;1474;51.460;7.150;2023-06-22T17:34:14;20.30;90.40
2929;DHT22;1474;51.460;7.150;2023-06-22T17:36:46;20.30;90.30
2929;DHT22;1474;51.460;7.150;2023-06-22T17:39:21;20.30;90.30
2929;DHT22;1474;51.460;7.150;2023-06-22T17:41:49;20.30;90.10
2929;DHT22;1474;51.460;7.150;2023-06-22T17:44:20;20.30;90.20
2929;DHT22;1474;51.460;7.150;2023-06-22T17:46:58;20.30;90.40
2929;DHT22;1474;51.460;7.150;2023-06-22T17:49:29;20.20;90.40
2929;DHT22;1474;51.460;7.150;2023-06-22T17:51:57;20.20;90.40
2929;DHT22;1474;51.460;7.150;2023-06-22T17:54:23;20.20;90.50
2929;DHT22;1474;51.460;7.150;2023-06-22T17:56:55;20.20;90.60
2929;DHT22;1474;51.460;7.150;2023-06-22T17:59:20;20.30;90.40
2929;DHT22;1474;51.460;7.150;2023-06-22T18:01:47;20.30;90.30
2929;DHT22;1474;51.460;7.150;2023-06-22T18:04:16;20.30;90.30
2929;DHT22;1474;51.460;7.150;2023-06-22T18:06:47;20.30;90.30
2929;DHT22;1474;51.460;7.150;2023-06-22T18:09:15;20.40;90.30
2929;DHT22;1474;51.460;7.150;2023-06-22T18:11:47;20.30;90.30
2929;DHT22;1474;51.460;7.150;2023-06-22T18:14:18;20.30;90.40
2929;DHT22;1474;51.460;7.150;2023-06-22T18:16:46;20.40;90.30
2929;DHT22;1474;51.460;7.150;2023-06-22T18:19:14;20.30;90.20
2929;DHT22;1474;51.460;7.150;2023-06-22T18:21:41;20.30;90.10
2929;DHT22;1474;51.460;7.150;2023-06-22T18:24:12;20.30;90.20
2929;DHT22;1474;51.460;7.150;2023-06-22T18:26:40;20.40;90.00
2929;DHT22;1474;51.460;7.150;2023-06-22T18:29:07;20.40;90.00
2929;DHT22;1474;51.460;7.150;2023-06-22T18:31:34;20.40;90.10
2929;DHT22;1474;51.460;7.150;2023-06-22T18:34:02;20.50;90.10
2929;DHT22;1474;51.460;7.150;2023-06-22T18:36:42;20.50;90.20
2929;DHT22;1474;51.460;7.150;2023-06-22T18:39:11;20.50;90.20
2929;DHT22;1474;51.460;7.150;2023-06-22T18:41:40;20.50;90.10
2929;DHT22;1474;51.460;7.150;2023-06-22T18:44:27;20.40;90.30
2929;DHT22;1474;51.460;7.150;2023-06-22T18:47:04;20.30;90.50
2929;DHT22;1474;51.460;7.150;2023-06-22T18:52:13;20.30;90.60
2929;DHT22;1474;51.460;7.150;2023-06-22T18:54:47;20.30;90.90
2929;DHT22;1474;51.460;7.150;2023-06-22T18:57:24;20.30;90.80
2929;DHT22;1474;51.460;7.150;2023-06-22T18:59:58;20.30;91.10
2929;DHT22;1474;51.460;7.150;2023-06-22T19:10:26;20.50;90.70
2929;DHT22;1474;51.460;7.150;2023-06-22T19:12:56;20.50;90.60
2929;DHT22;1474;51.460;7.150;2023-06-22T19:15:32;20.50;90.50
2929;DHT22;1474;51.460;7.150;2023-06-22T19:18:14;20.50;90.60
2929;DHT22;1474;51.460;7.150;2023-06-22T19:20:42;20.50;90.60
2929;DHT22;1474;51.460;7.150;2023-06-22T19:23:43;20.60;90.50
2929;DHT22;1474;51.460;7.150;2023-06-22T19:26:16;20.50;90.50
2929;DHT22;1474;51.460;7.150;2023-06-22T19:28:51;20.60;90.30
2929;DHT22;1474;51.460;7.150;2023-06-22T19:31:20;20.50;90.40
2929;DHT22;1474;51.460;7.150;2023-06-22T19:33:50;20.50;90.40
2929;DHT22;1474;51.460;7.150;2023-06-22T19:36:21;20.60;90.40
2929;DHT22;1474;51.460;7.150;2023-06-22T19:38:48;20.60;90.60
2929;DHT22;1474;51.460;7.150;2023-06-22T19:41:14;20.60;90.20
2929;DHT22;1474;51.460;7.150;2023-06-22T19:43:41;20.70;90.20
2929;DHT22;1474;51.460;7.150;2023-06-22T19:46:07;20.70;89.90
2929;DHT22;1474;51.460;7.150;2023-06-22T19:48:33;20.80;89.50
2929;DHT22;1474;51.460;7.150;2023-06-22T19:51:03;20.80;89.40
2929;DHT22;1474;51.460;7.150;2023-06-22T19:53:30;20.80;89.00
2929;DHT22;1474;51.460;7.150;2023-06-22T19:55:56;20.90;88.80
2929;DHT22;1474;51.460;7.150;2023-06-22T19:58:23;20.90;88.40
2929;DHT22;1474;51.460;7.150;2023-06-22T20:00:50;20.90;88.20
2929;DHT22;1474;51.460;7.150;2023-06-22T20:03:31;20.90;88.10
2929;DHT22;1474;51.460;7.150;2023-06-22T20:06:27;20.70;88.60
2929;DHT22;1474;51.460;7.150;2023-06-22T20:08:56;20.60;89.10
2929;DHT22;1474;51.460;7.150;2023-06-22T20:11:28;20.50;89.40
2929;DHT22;1474;51.460;7.150;2023-06-22T20:13:55;20.50;89.60
2929;DHT22;1474;51.460;7.150;2023-06-22T20:16:22;20.50;89.40
2929;DHT22;1474;51.460;7.150;2023-06-22T20:19:07;20.30;89.10
2929;DHT22;1474;51.460;7.150;2023-06-22T20:21:33;20.10;88.60
2929;DHT22;1474;51.460;7.150;2023-06-22T20:24:07;20.10;88.70
2929;DHT22;1474;51.460;7.150;2023-06-22T20:26:41;20.00;87.70
2929;DHT22;1474;51.460;7.150;2023-06-22T20:29:28;19.80;87.50
2929;DHT22;1474;51.460;7.150;2023-06-22T20:32:09;19.60;87.40
2929;DHT22;1474;51.460;7.150;2023-06-22T20:34:39;19.50;87.20
2929;DHT22;1474;51.460;7.150;2023-06-22T20:37:11;19.30;87.50
2929;DHT22;1474;51.460;7.150;2023-06-22T20:39:37;19.20;88.10
2929;DHT22;1474;51.460;7.150;2023-06-22T20:42:04;19.00;88.30
2929;DHT22;1474;51.460;7.150;2023-06-22T20:44:31;19.00;88.90
2929;DHT22;1474;51.460;7.150;2023-06-22T20:46:57;18.90;88.90
2929;DHT22;1474;51.460;7.150;2023-06-22T20:49:23;18.90;88.90
2929;DHT22;1474;51.460;7.150;2023-06-22T20:51:52;18.80;88.70
2929;DHT22;1474;51.460;7.150;2023-06-22T20:54:18;18.80;89.30
2929;DHT22;1474;51.460;7.150;2023-06-22T20:56:44;18.70;89.30
2929;DHT22;1474;51.460;7.150;2023-06-22T20:59:11;18.60;89.30
2929;DHT22;1474;51.460;7.150;2023-06-22T21:01:37;18.70;89.40
2929;DHT22;1474;51.460;7.150;2023-06-22T21:04:03;18.50;89.30
2929;DHT22;1474;51.460;7.150;2023-06-22T21:06:29;18.50;90.00
2929;DHT22;1474;51.460;7.150;2023-06-22T21:08:55;18.40;89.90
2929;DHT22;1474;51.460;7.150;2023-06-22T21:11:21;18.40;90.30